Time;durP1;ratioP1;P1;durP2;ratioP2;P2;SDS_P1;SDS_P2;PMS_P1;PMS_P2;Temp;Humidity;BMP_temperature;BMP_pressure;BME280_temperature;BME280_humidity;BME280_pressure;Samples;Min_cycle;Max_cycle;Signal;HPM_P1;HPM_P2
2022/10/07 00:01:21;;;;;;;12.10;3.05;;;10.20;99.90;;;;;;5058798;28;20049;-56
2022/10/07 00:03:46;;;;;;;11.25;2.63;;;10.20;99.90;;;;;;5058494;28;20061;-56
2022/10/07 00:06:18;;;;;;;13.38;2.60;;;10.20;99.90;;;;;;5058594;28;20049;-57
2022/10/07 00:08:46;;;;;;;12.03;2.97;;;10.10;99.90;;;;;;5057531;28;20543;-56
2022/10/07 00:11:22;;;;;;;16.55;2.58;;;10.30;99.90;;;;;;5059342;28;20756;-57
2022/10/07 00:13:51;;;;;;;13.52;2.35;;;10.30;99.90;;;;;;5062519;28;20533;-57
2022/10/07 00:16:20;;;;;;;13.13;2.42;;;10.20;99.90;;;;;;5062110;28;20044;-56
2022/10/07 00:18:49;;;;;;;13.90;2.40;;;10.30;99.90;;;;;;5062623;28;20047;-57
2022/10/07 00:21:16;;;;;;;10.57;2.45;;;10.20;99.90;;;;;;5060934;28;20056;-57
2022/10/07 00:23:43;;;;;;;12.70;2.17;;;10.20;99.90;;;;;;5061586;28;20105;-56
2022/10/07 00:26:13;;;;;;;13.35;3.25;;;10.20;99.90;;;;;;5062662;28;20048;-57
2022/10/07 00:28:38;;;;;;;10.50;2.10;;;10.30;99.90;;;;;;5061818;28;20048;-57
2022/10/07 00:31:07;;;;;;;9.10;2.22;;;10.20;99.90;;;;;;5062520;28;20052;-57
2022/10/07 00:33:36;;;;;;;12.10;2.30;;;10.20;99.90;;;;;;5061929;28;20060;-56
2022/10/07 00:36:06;;;;;;;10.82;2.25;;;10.20;99.90;;;;;;5062016;28;20492;-56
2022/10/07 00:38:32;;;;;;;14.00;3.45;;;10.10;99.90;;;;;;5062141;28;20037;-56
2022/10/07 00:40:58;;;;;;;10.60;2.30;;;10.30;99.90;;;;;;5077341;28;20128;-56
2022/10/07 00:43:30;;;;;;;12.77;2.40;;;10.10;99.90;;;;;;5082356;28;20119;-56
2022/10/07 00:46:10;;;;;;;12.50;2.70;;;10.20;99.90;;;;;;5081493;28;20048;-56
2022/10/07 00:48:38;;;;;;;15.00;2.95;;;10.20;99.90;;;;;;5082129;28;20094;-56
2022/10/07 00:51:05;;;;;;;9.80;2.58;;;10.10;99.90;;;;;;5081792;28;20407;-56
2022/10/07 00:53:32;;;;;;;13.63;3.13;;;10.10;99.90;;;;;;5081287;28;20155;-56
2022/10/07 00:56:01;;;;;;;15.00;3.53;;;10.10;99.90;;;;;;5081706;28;20580;-56
2022/10/07 00:58:30;;;;;;;9.90;2.10;;;10.10;99.90;;;;;;5081054;28;20043;-56
2022/10/07 01:00:56;;;;;;;9.80;2.53;;;10.10;99.90;;;;;;5062057;28;20045;-57
2022/10/07 01:03:23;;;;;;;8.85;2.42;;;10.10;99.90;;;;;;5043180;28;20071;-56
2022/10/07 01:05:49;;;;;;;10.82;2.20;;;10.00;99.90;;;;;;5061566;28;20119;-56
2022/10/07 01:08:17;;;;;;;12.68;2.90;;;10.10;99.90;;;;;;5061264;28;20052;-56
2022/10/07 01:10:56;;;;;;;10.63;2.65;;;10.00;99.90;;;;;;5060676;28;20052;-56
2022/10/07 01:13:33;;;;;;;13.45;3.00;;;10.00;99.90;;;;;;5061488;28;20057;-56
2022/10/07 01:16:09;;;;;;;12.77;2.70;;;10.00;99.90;;;;;;5061059;28;20048;-56
2022/10/07 01:18:39;;;;;;;15.52;2.80;;;10.00;99.90;;;;;;5061361;28;20504;-56
2022/10/07 01:21:19;;;;;;;14.18;2.83;;;9.90;99.90;;;;;;5061162;28;20041;-56
2022/10/07 01:24:14;;;;;;;12.43;2.58;;;10.00;99.90;;;;;;5059887;28;20456;-58
2022/10/07 01:26:53;;;;;;;10.63;2.58;;;9.90;99.90;;;;;;5059759;28;20521;-56
2022/10/07 01:29:21;;;;;;;14.40;2.75;;;10.00;99.90;;;;;;5060496;28;20059;-57
2022/10/07 01:32:03;;;;;;;11.57;2.80;;;10.00;99.90;;;;;;5061067;28;20037;-56
2022/10/07 01:34:31;;;;;;;;;;;9.90;99.90;;;;;;5061457;28;20048;-56
2022/10/07 01:36:58;;;;;;;10.65;2.70;;;9.90;99.90;;;;;;5060483;28;19931;-56
2022/10/07 01:39:29;;;;;;;9.27;2.38;;;9.90;99.90;;;;;;5064385;28;20036;-53
2022/10/07 01:41:56;;;;;;;9.60;2.45;;;9.90;99.90;;;;;;5080701;28;20044;-56
2022/10/07 01:44:25;;;;;;;18.80;3.75;;;10.20;99.90;;;;;;5081080;28;20053;-56
2022/10/07 01:46:51;;;;;;;13.02;3.45;;;9.90;99.90;;;;;;5080783;28;20043;-56
2022/10/07 01:49:16;;;;;;;8.93;2.78;;;9.90;99.90;;;;;;5080220;28;20045;-57
2022/10/07 01:51:42;;;;;;;10.80;2.75;;;9.80;99.90;;;;;;5079672;28;20052;-56
2022/10/07 01:54:24;;;;;;;9.88;2.80;;;9.90;99.90;;;;;;5078661;28;20044;-56
2022/10/07 01:57:28;;;;;;;9.40;3.00;;;9.80;99.90;;;;;;5080940;28;20045;-55
2022/10/07 02:00:03;;;;;;;16.80;4.32;;;9.80;99.90;;;;;;5026172;28;20053;-56
2022/10/07 02:02:47;;;;;;;15.68;3.50;;;9.90;99.90;;;;;;5030812;28;20075;-56
2022/10/07 02:05:41;;;;;;;11.98;2.85;;;9.80;99.90;;;;;;5052608;28;20080;-56
2022/10/07 02:08:25;;;;;;;12.55;2.92;;;9.80;99.90;;;;;;5059982;28;20045;-55
2022/10/07 02:11:14;;;;;;;13.13;3.25;;;9.70;99.90;;;;;;5059444;28;20052;-56
2022/10/07 02:13:56;;;;;;;11.30;3.03;;;9.70;99.90;;;;;;5060353;28;20045;-56
2022/10/07 02:16:39;;;;;;;15.05;3.85;;;9.80;99.90;;;;;;5060019;28;20052;-56
2022/10/07 02:19:17;;;;;;;11.35;3.22;;;9.90;99.90;;;;;;5060020;28;20041;-56
2022/10/07 02:21:46;;;;;;;10.27;3.28;;;9.80;99.90;;;;;;5060328;28;20037;-55
2022/10/07 02:24:13;;;;;;;14.13;3.58;;;9.70;99.90;;;;;;5059764;28;20481;-56
2022/10/07 02:26:41;;;;;;;11.45;3.60;;;9.80;99.90;;;;;;5060496;28;20075;-56
2022/10/07 02:29:09;;;;;;;15.35;5.40;;;9.80;99.90;;;;;;5059697;28;20397;-54
2022/10/07 02:31:39;;;;;;;17.23;4.18;;;9.70;99.90;;;;;;5060082;28;20053;-56
2022/10/07 02:34:07;;;;;;;12.30;3.22;;;9.70;99.90;;;;;;5060133;28;20040;-57
2022/10/07 02:36:38;;;;;;;13.15;3.22;;;9.80;99.90;;;;;;5057890;28;20041;-56
2022/10/07 02:39:05;;;;;;;14.65;4.05;;;9.70;99.90;;;;;;5060475;28;20033;-55
2022/10/07 02:41:53;;;;;;;11.18;3.15;;;9.70;99.90;;;;;;5079449;28;20044;-56
2022/10/07 02:44:34;;;;;;;12.30;3.55;;;9.70;99.90;;;;;;5079951;28;20033;-56
2022/10/07 02:47:10;;;;;;;12.63;3.63;;;9.80;99.90;;;;;;5079916;28;20037;-55
2022/10/07 02:49:39;;;;;;;15.23;3.40;;;9.70;99.90;;;;;;5077232;28;20040;-57
2022/10/07 02:52:08;;;;;;;13.85;3.75;;;9.70;99.90;;;;;;5079940;28;20041;-56
2022/10/07 02:54:58;;;;;;;12.40;3.58;;;9.60;99.90;;;;;;5079287;28;20064;-56
2022/10/07 02:57:26;;;;;;;16.98;4.07;;;9.70;99.90;;;;;;5078897;28;20113;-57
2022/10/07 02:59:53;;;;;;;18.20;4.40;;;9.60;99.90;;;;;;5067654;28;20053;-56
2022/10/07 03:02:41;;;;;;;10.93;3.20;;;9.60;99.90;;;;;;5058690;28;20115;-57
2022/10/07 03:05:08;;;;;;;14.38;3.65;;;9.70;99.90;;;;;;5057776;28;20057;-56
2022/10/07 03:07:34;;;;;;;18.17;3.78;;;9.60;99.90;;;;;;5058906;28;20048;-56
2022/10/07 03:10:00;;;;;;;15.65;3.60;;;9.60;99.90;;;;;;5059365;28;20045;-56
2022/10/07 03:12:27;;;;;;;12.32;3.67;;;9.60;99.90;;;;;;5059295;28;20048;-56
2022/10/07 03:14:53;;;;;;;13.52;4.10;;;9.60;99.90;;;;;;5058985;28;20106;-57
2022/10/07 03:17:19;;;;;;;10.30;3.28;;;9.60;99.90;;;;;;5059564;28;20041;-57
2022/10/07 03:19:44;;;;;;;15.77;4.07;;;9.50;99.90;;;;;;5058852;28;20041;-57
2022/10/07 03:22:11;;;;;;;13.95;3.88;;;9.60;99.90;;;;;;5059061;28;20072;-57
2022/10/07 03:24:37;;;;;;;13.15;4.10;;;9.70;99.90;;;;;;5057560;28;20041;-56
2022/10/07 03:27:06;;;;;;;14.00;4.85;;;9.60;99.90;;;;;;5059292;28;20052;-56
2022/10/07 03:29:33;;;;;;;14.77;4.32;;;9.50;99.90;;;;;;5057532;28;20073;-55
2022/10/07 03:32:00;;;;;;;15.88;4.28;;;9.40;99.90;;;;;;5058787;28;20070;-57
2022/10/07 03:34:26;;;;;;;17.77;4.63;;;9.50;99.90;;;;;;5059319;28;20074;-57
2022/10/07 03:36:53;;;;;;;12.13;3.65;;;9.40;99.90;;;;;;5058346;28;20501;-57
2022/10/07 03:39:19;;;;;;;18.33;4.75;;;9.40;99.90;;;;;;5061839;28;20045;-57
2022/10/07 03:41:47;;;;;;;19.20;4.18;;;9.40;99.90;;;;;;5078554;28;20127;-56
2022/10/07 03:44:13;;;;;;;11.80;3.78;;;9.50;99.90;;;;;;5077724;28;20064;-57
2022/10/07 03:46:39;;;;;;;13.88;4.43;;;9.40;99.90;;;;;;5081238;28;20823;-56
2022/10/07 03:49:05;;;;;;;13.32;4.18;;;9.40;99.90;;;;;;5082609;28;20055;-57
2022/10/07 03:51:31;;;;;;;14.25;3.97;;;9.40;99.90;;;;;;5083414;28;20064;-57
2022/10/07 03:53:57;;;;;;;12.50;4.43;;;9.40;99.90;;;;;;5082457;28;20504;-56
2022/10/07 03:56:23;;;;;;;15.35;4.22;;;9.80;99.90;;;;;;5083307;28;20366;-57
2022/10/07 03:58:49;;;;;;;15.23;4.10;;;9.40;99.90;;;;;;5078907;28;20105;-56
2022/10/07 04:01:15;;;;;;;14.95;4.63;;;9.30;99.90;;;;;;5061720;28;20175;-57
2022/10/07 04:03:41;;;;;;;16.13;3.88;;;9.50;99.90;;;;;;5062266;28;20055;-57
2022/10/07 04:06:07;;;;;;;16.55;4.10;;;9.30;99.90;;;;;;5062511;28;20067;-57
2022/10/07 04:08:33;;;;;;;12.35;4.07;;;9.30;99.90;;;;;;5062993;28;20040;-56
2022/10/07 04:11:00;;;;;;;13.82;3.95;;;9.50;99.90;;;;;;5061791;28;20041;-57
2022/10/07 04:13:25;;;;;;;17.80;4.22;;;9.50;99.90;;;;;;5062614;28;20048;-57
2022/10/07 04:15:52;;;;;;;13.88;5.15;;;9.30;99.90;;;;;;5060684;28;20072;-56
2022/10/07 04:18:17;;;;;;;13.70;4.10;;;9.40;99.90;;;;;;5062656;28;20131;-56
2022/10/07 04:20:43;;;;;;;15.80;4.57;;;9.40;99.90;;;;;;5062274;28;20100;-55
2022/10/07 04:23:09;;;;;;;14.25;4.07;;;9.30;99.90;;;;;;5062380;28;20057;-57
2022/10/07 04:25:36;;;;;;;14.00;3.63;;;9.30;99.90;;;;;;5062538;28;20112;-56
2022/10/07 04:28:06;;;;;;;16.73;4.05;;;9.40;99.90;;;;;;5061755;28;20053;-57
2022/10/07 04:30:33;;;;;;;13.70;4.30;;;9.40;99.90;;;;;;5062511;28;20497;-57
2022/10/07 04:33:02;;;;;;;16.38;4.75;;;9.30;99.90;;;;;;5062061;28;20048;-57
2022/10/07 04:35:28;;;;;;;13.45;4.38;;;9.30;99.90;;;;;;5062457;28;20041;-57
2022/10/07 04:37:54;;;;;;;18.17;5.63;;;9.20;99.90;;;;;;5062230;28;20052;-57
2022/10/07 04:40:21;;;;;;;16.45;5.18;;;9.30;99.90;;;;;;5073108;28;20048;-57
2022/10/07 04:45:33;;;;;;;17.10;4.80;;;9.40;99.90;;;;;;5080254;28;20091;-57
2022/10/07 04:47:59;;;;;;;18.70;5.43;;;9.30;99.90;;;;;;5082186;28;20107;-57
2022/10/07 04:50:25;;;;;;;16.90;4.30;;;9.50;99.90;;;;;;5081679;28;20603;-56
2022/10/07 04:52:50;;;;;;;16.67;5.65;;;9.20;99.90;;;;;;5082194;28;20101;-57
2022/10/07 04:55:16;;;;;;;19.88;4.80;;;9.30;99.90;;;;;;5080498;28;20119;-57
2022/10/07 04:57:42;;;;;;;21.10;5.43;;;9.30;99.90;;;;;;5080292;28;20479;-57
2022/10/07 05:00:08;;;;;;;16.58;5.10;;;9.40;99.90;;;;;;5067911;28;20088;-57
2022/10/07 05:02:35;;;;;;;23.58;6.78;;;9.40;99.90;;;;;;5061213;28;20068;-57
2022/10/07 05:05:01;;;;;;;17.95;4.65;;;9.40;99.90;;;;;;5061806;28;20045;-56
2022/10/07 05:07:26;;;;;;;18.45;5.25;;;9.30;99.90;;;;;;5061072;28;20056;-56
2022/10/07 05:09:52;;;;;;;18.40;5.45;;;9.20;99.90;;;;;;5043546;28;20053;-57
2022/10/07 05:12:18;;;;;;;13.63;5.78;;;9.20;99.90;;;;;;5061342;28;20037;-56
2022/10/07 05:14:44;;;;;;;16.23;5.07;;;9.30;99.90;;;;;;5059897;28;20049;-57
2022/10/07 05:17:11;;;;;;;21.13;5.43;;;9.20;99.90;;;;;;5061804;28;20120;-56
2022/10/07 05:19:37;;;;;;;17.52;5.82;;;9.30;99.90;;;;;;5060777;28;20041;-58
2022/10/07 05:22:03;;;;;;;17.92;5.07;;;9.20;99.90;;;;;;5061657;28;20040;-58
2022/10/07 05:24:29;;;;;;;16.58;4.97;;;9.30;99.90;;;;;;5060843;28;20076;-57
2022/10/07 05:26:55;;;;;;;16.63;5.00;;;9.50;99.90;;;;;;5061383;28;20045;-57
2022/10/07 05:29:22;;;;;;;17.95;5.30;;;9.40;99.90;;;;;;5060852;28;20128;-57
2022/10/07 05:31:50;;;;;;;17.77;5.05;;;9.40;99.90;;;;;;5060815;28;20051;-57
2022/10/07 05:34:16;;;;;;;15.52;5.05;;;9.30;99.90;;;;;;5061488;28;20056;-57
2022/10/07 05:36:42;;;;;;;19.35;5.32;;;9.40;99.90;;;;;;5059078;28;20064;-58
2022/10/07 05:39:09;;;;;;;18.10;5.90;;;9.40;99.90;;;;;;5058913;28;20075;-57
2022/10/07 05:41:36;;;;;;;15.57;5.38;;;9.30;99.90;;;;;;5077369;28;20040;-57
2022/10/07 05:44:02;;;;;;;20.40;5.30;;;9.40;99.90;;;;;;5075236;28;20113;-57
2022/10/07 05:46:27;;;;;;;19.55;5.75;;;9.40;99.90;;;;;;5075378;28;20515;-57
2022/10/07 05:48:53;;;;;;;22.00;5.60;;;9.50;99.90;;;;;;5075209;28;20260;-57
2022/10/07 05:51:21;;;;;;;16.83;4.88;;;9.40;99.90;;;;;;5075696;28;20030;-56
2022/10/07 05:53:47;;;;;;;13.65;5.18;;;9.40;99.90;;;;;;5075225;28;20037;-57
2022/10/07 05:56:20;;;;;;;22.23;5.22;;;9.40;99.90;;;;;;5076138;28;20049;-56
2022/10/07 05:58:46;;;;;;;18.13;5.78;;;9.40;99.90;;;;;;5074819;28;20044;-56
2022/10/07 06:01:17;;;;;;;18.58;5.28;;;9.30;99.90;;;;;;5076722;28;20124;-55
2022/10/07 06:03:51;;;;;;;19.48;6.72;;;9.30;99.90;;;;;;5076156;28;20500;-57
2022/10/07 06:06:17;;;;;;;15.98;5.13;;;9.30;99.90;;;;;;5055289;28;20045;-58
2022/10/07 06:08:43;;;;;;;12.95;5.25;;;9.30;99.90;;;;;;5061557;28;20040;-58
2022/10/07 06:13:55;;;;;;;17.73;6.00;;;9.50;99.90;;;;;;5077033;28;20421;-58
2022/10/07 06:16:22;;;;;;;22.08;6.07;;;9.40;99.90;;;;;;5054555;28;20048;-56
2022/10/07 06:18:49;;;;;;;22.08;7.63;;;9.60;99.90;;;;;;5056391;28;20052;-57
2022/10/07 06:21:15;;;;;;;23.85;6.22;;;9.60;99.90;;;;;;5056483;28;20079;-54
2022/10/07 06:23:40;;;;;;;16.42;5.75;;;9.70;99.90;;;;;;5054198;28;20049;-56
2022/10/07 06:26:09;;;;;;;17.70;5.40;;;9.50;99.90;;;;;;5071557;28;20044;-55
2022/10/07 06:28:40;;;;;;;16.15;5.90;;;9.70;99.90;;;;;;5055743;28;20090;-55
2022/10/07 06:31:07;;;;;;;19.70;5.40;;;9.60;99.90;;;;;;5055139;28;20070;-55
2022/10/07 06:33:33;;;;;;;21.35;5.95;;;9.70;99.90;;;;;;5055832;28;20048;-52
2022/10/07 06:36:09;;;;;;;19.17;6.55;;;9.70;99.90;;;;;;5055242;28;20044;-56
2022/10/07 06:38:35;;;;;;;14.45;5.63;;;9.70;99.90;;;;;;5054652;28;20052;-55
2022/10/07 06:41:03;;;;;;;19.35;7.57;;;9.70;99.90;;;;;;5071890;28;20086;-55
2022/10/07 06:43:30;;;;;;;17.75;6.07;;;9.80;99.90;;;;;;5075759;28;20155;-56
2022/10/07 06:46:01;;;;;;;18.60;5.47;;;9.70;99.90;;;;;;5075386;28;20064;-55
2022/10/07 06:48:28;;;;;;;17.80;5.72;;;9.90;99.90;;;;;;5076384;28;20087;-58
2022/10/07 06:50:57;;;;;;;22.20;6.38;;;9.90;99.90;;;;;;5075713;28;20040;-57
2022/10/07 06:53:23;;;;;;;19.95;6.07;;;9.90;99.90;;;;;;5075115;28;20100;-56
2022/10/07 06:55:58;;;;;;;20.17;6.05;;;10.00;99.90;;;;;;5076117;28;20052;-56
2022/10/07 06:58:27;;;;;;;18.15;7.45;;;10.00;99.90;;;;;;5075117;28;20040;-56
2022/10/07 07:00:54;;;;;;;13.75;5.25;;;10.20;99.90;;;;;;5055631;28;20052;-55
2022/10/07 07:03:21;;;;;;;17.42;5.82;;;10.30;99.90;;;;;;5055403;28;20049;-55
2022/10/07 07:05:46;;;;;;;14.68;5.40;;;10.30;99.90;;;;;;5054312;28;20063;-53
2022/10/07 07:08:14;;;;;;;16.90;6.72;;;10.30;99.90;;;;;;5055409;28;20045;-54
2022/10/07 07:10:41;;;;;;;20.75;6.07;;;10.50;99.90;;;;;;5054526;28;20045;-55
2022/10/07 07:13:08;;;;;;;20.23;5.43;;;10.40;99.90;;;;;;5055618;28;20076;-55
2022/10/07 07:15:35;;;;;;;18.88;6.35;;;10.50;99.90;;;;;;5055140;28;20048;-55
2022/10/07 07:18:02;;;;;;;22.45;5.95;;;10.40;99.90;;;;;;5055803;28;20595;-55
2022/10/07 07:20:34;;;;;;;23.48;7.57;;;10.60;99.90;;;;;;5054450;28;20116;-53
2022/10/07 07:23:11;;;;;;;18.27;5.85;;;10.70;99.90;;;;;;5055238;28;20052;-55
2022/10/07 07:25:38;;;;;;;18.05;6.50;;;10.80;99.90;;;;;;5073523;28;20040;-54
2022/10/07 07:28:06;;;;;;;21.17;6.35;;;10.70;99.90;;;;;;5073450;28;20045;-54
2022/10/07 07:30:32;;;;;;;17.55;5.22;;;10.80;99.90;;;;;;5068562;28;20094;-54
2022/10/07 07:32:58;;;;;;;16.85;5.07;;;10.90;99.90;;;;;;5063876;28;20071;-55
2022/10/07 07:35:25;;;;;;;21.25;6.70;;;10.90;99.90;;;;;;5073454;28;20056;-55
2022/10/07 07:37:52;;;;;;;23.50;6.03;;;11.00;99.90;;;;;;5074353;28;20075;-54
2022/10/07 07:40:19;;;;;;;20.48;5.80;;;11.20;99.90;;;;;;5075047;28;20052;-55
2022/10/07 07:42:46;;;;;;;20.23;5.97;;;11.20;99.90;;;;;;5075879;28;20594;-54
2022/10/07 07:45:12;;;;;;;17.65;6.15;;;11.20;99.90;;;;;;5074604;28;20523;-55
2022/10/07 07:47:38;;;;;;;17.48;5.53;;;11.20;99.90;;;;;;5075229;28;20059;-56
2022/10/07 07:50:05;;;;;;;18.30;6.15;;;11.20;99.90;;;;;;5074360;28;20387;-55
2022/10/07 07:52:34;;;;;;;17.65;5.65;;;11.30;99.90;;;;;;5075275;28;20107;-55
2022/10/07 07:55:01;;;;;;;19.70;5.90;;;11.40;99.90;;;;;;5074767;28;20049;-54
2022/10/07 07:57:28;;;;;;;17.25;5.25;;;11.50;99.90;;;;;;5072475;28;20504;-55
2022/10/07 07:59:54;;;;;;;17.63;5.32;;;11.40;99.90;;;;;;5074095;28;20063;-55
2022/10/07 08:02:22;;;;;;;13.82;5.82;;;11.60;99.90;;;;;;5072692;28;20201;-55
2022/10/07 08:04:48;;;;;;;16.30;5.45;;;11.70;99.90;;;;;;5069709;28;20073;-56
2022/10/07 08:07:14;;;;;;;16.65;5.30;;;11.80;99.90;;;;;;5073207;28;20119;-55
2022/10/07 08:09:39;;;;;;;15.70;5.45;;;11.80;99.90;;;;;;5074598;28;20406;-56
2022/10/07 08:12:05;;;;;;;18.45;5.68;;;11.80;99.90;;;;;;5074990;28;20131;-54
2022/10/07 08:14:34;;;;;;;21.67;6.95;;;11.90;99.90;;;;;;5074501;28;20060;-55
2022/10/07 08:16:59;;;;;;;18.33;5.10;;;12.10;99.90;;;;;;5075433;28;20083;-54
2022/10/07 08:19:28;;;;;;;17.08;5.90;;;12.00;99.90;;;;;;5074062;28;20451;-55
2022/10/07 08:21:55;;;;;;;18.70;5.55;;;12.10;99.90;;;;;;5073871;28;20049;-54
2022/10/07 08:24:22;;;;;;;14.77;4.88;;;12.20;99.90;;;;;;5074284;28;20546;-55
2022/10/07 08:26:48;;;;;;;18.50;5.32;;;12.20;99.90;;;;;;5074811;28;20040;-56
2022/10/07 08:29:15;;;;;;;13.70;5.22;;;12.30;99.90;;;;;;5074631;28;20220;-55
2022/10/07 08:31:41;;;;;;;18.20;5.10;;;12.40;99.90;;;;;;5075421;28;20048;-56
2022/10/07 08:34:08;;;;;;;19.42;4.50;;;12.50;99.90;;;;;;5078205;28;20048;-54
2022/10/07 08:36:34;;;;;;;18.45;5.03;;;12.60;99.90;;;;;;5077419;28;20044;-55
2022/10/07 08:39:01;;;;;;;14.45;4.55;;;12.70;99.90;;;;;;5077963;28;20488;-56
2022/10/07 08:41:32;;;;;;;18.98;5.03;;;12.70;99.90;;;;;;5076958;28;20040;-56
2022/10/07 08:44:19;;;;;;;16.67;5.07;;;12.90;99.90;;;;;;5075859;28;20076;-54
2022/10/07 08:46:57;;;;;;;16.08;3.95;;;13.00;99.90;;;;;;5077478;28;20880;-55
2022/10/07 08:49:57;;;;;;;15.30;4.35;;;12.90;99.90;;;;;;5080317;28;20058;-55
2022/10/07 08:52:41;;;;;;;16.75;3.80;;;13.20;99.90;;;;;;5061828;28;20100;-55
2022/10/07 08:55:17;;;;;;;15.85;4.15;;;13.30;99.90;;;;;;5059954;28;20053;-55
2022/10/07 08:58:21;;;;;;;16.77;4.25;;;13.20;99.90;;;;;;5060968;28;20056;-55
2022/10/07 09:01:08;;;;;;;17.33;4.05;;;13.50;99.90;;;;;;5078998;28;20484;-56
2022/10/07 09:03:50;;;;;;;17.55;4.22;;;13.40;99.90;;;;;;5081047;28;20048;-55
2022/10/07 09:06:26;;;;;;;17.67;4.18;;;13.50;99.90;;;;;;5080713;28;20067;-56
2022/10/07 09:09:02;;;;;;;16.75;3.58;;;13.50;99.90;;;;;;5081893;28;20044;-56
2022/10/07 09:11:31;;;;;;;18.95;4.20;;;13.70;99.90;;;;;;5076604;28;20423;-56
2022/10/07 09:14:02;;;;;;;18.75;4.82;;;13.60;99.90;;;;;;5061529;28;20455;-56
2022/10/07 09:16:42;;;;;;;18.13;4.55;;;13.60;99.90;;;;;;5060554;28;20037;-56
2022/10/07 09:19:16;;;;;;;16.45;4.47;;;13.70;99.90;;;;;;5060339;28;20473;-56
2022/10/07 09:21:49;;;;;;;17.38;4.82;;;13.60;99.90;;;;;;5061060;28;20116;-57
2022/10/07 09:24:25;;;;;;;16.60;4.40;;;13.80;99.90;;;;;;5060528;28;20095;-55
2022/10/07 09:26:54;;;;;;;17.13;4.50;;;13.90;99.90;;;;;;5060992;28;20053;-55
2022/10/07 09:29:22;;;;;;;18.33;4.47;;;13.80;99.90;;;;;;5059548;28;20128;-55
2022/10/07 09:31:48;;;;;;;18.33;5.07;;;13.80;99.90;;;;;;5060410;28;20056;-56
2022/10/07 09:34:23;;;;;;;16.77;4.38;;;13.90;99.90;;;;;;5061117;28;20037;-56
2022/10/07 09:37:14;;;;;;;19.67;5.93;;;13.90;99.90;;;;;;5060457;28;20075;-56
2022/10/07 09:39:41;;;;;;;18.20;4.30;;;13.90;99.90;;;;;;5066621;28;20036;-56
2022/10/07 09:42:15;;;;;;;19.20;4.50;;;14.10;99.90;;;;;;5080868;28;20396;-55
2022/10/07 09:44:40;;;;;;;23.80;5.43;;;14.10;99.90;;;;;;5079010;28;20029;-56
2022/10/07 09:47:22;;;;;;;16.88;4.97;;;13.90;99.90;;;;;;5078704;28;20041;-56
2022/10/07 09:49:51;;;;;;;16.80;5.00;;;14.20;99.90;;;;;;5080017;28;20041;-56
2022/10/07 09:52:25;;;;;;;15.63;3.92;;;14.10;99.90;;;;;;5080357;28;20049;-55
2022/10/07 09:54:56;;;;;;;17.90;4.53;;;14.20;99.90;;;;;;5079377;28;20122;-56
2022/10/07 09:57:31;;;;;;;15.23;4.53;;;14.20;99.90;;;;;;5079670;28;20212;-52
2022/10/07 10:00:12;;;;;;;18.58;4.80;;;14.40;99.90;;;;;;5080049;28;20271;-56
2022/10/07 10:02:40;;;;;;;14.07;5.22;;;14.40;99.90;;;;;;5078558;28;20048;-55
2022/10/07 10:05:30;;;;;;;18.70;4.18;;;14.40;99.90;;;;;;5077269;28;20048;-56
2022/10/07 10:08:20;;;;;;;18.45;4.28;;;14.50;99.90;;;;;;5078110;28;20044;-55
2022/10/07 10:11:03;;;;;;;20.77;4.43;;;14.70;99.90;;;;;;5076301;28;20048;-56
2022/10/07 10:13:32;;;;;;;13.55;3.83;;;14.80;99.90;;;;;;5078066;28;20484;-56
2022/10/07 10:15:59;;;;;;;22.23;4.30;;;15.00;99.90;;;;;;5078294;28;20393;-55
2022/10/07 10:18:37;;;;;;;15.40;3.53;;;15.00;99.90;;;;;;5079737;28;20036;-56
2022/10/07 10:21:18;;;;;;;19.83;3.95;;;15.10;99.90;;;;;;5078743;28;20549;-55
2022/10/07 10:23:49;;;;;;;15.07;3.77;;;15.30;99.90;;;;;;5078986;28;20040;-56
2022/10/07 10:26:24;;;;;;;20.80;3.83;;;15.30;99.90;;;;;;5079631;28;20329;-55
2022/10/07 10:29:09;;;;;;;18.45;3.55;;;15.10;99.90;;;;;;5077135;28;20036;-56
2022/10/07 10:31:57;;;;;;;15.50;4.05;;;15.30;99.90;;;;;;5076642;28;20080;-56
2022/10/07 10:34:34;;;;;;;15.52;3.45;;;15.20;99.90;;;;;;5078011;28;20492;-56
2022/10/07 10:37:20;;;;;;;22.13;3.50;;;15.30;99.90;;;;;;5079286;28;20064;-56
2022/10/07 10:40:03;;;;;;;16.67;3.80;;;15.30;99.90;;;;;;5079743;28;20131;-56
2022/10/07 10:43:11;;;;;;;16.35;3.03;;;15.30;99.90;;;;;;5079650;28;20044;-54
2022/10/07 10:45:39;;;;;;;14.23;3.15;;;15.30;99.90;;;;;;5079265;28;20125;-55
2022/10/07 10:48:33;;;;;;;13.82;3.20;;;15.20;99.90;;;;;;5079697;28;20496;-55
2022/10/07 10:51:14;;;;;;;16.48;3.45;;;15.20;99.90;;;;;;5079894;28;20454;-55
2022/10/07 10:54:02;;;;;;;13.57;3.90;;;15.10;99.90;;;;;;5078328;28;20044;-55
2022/10/07 10:57:10;;;;;;;16.40;3.95;;;15.10;99.90;;;;;;5075531;28;20056;-56
2022/10/07 11:00:03;;;;;;;11.90;2.90;;;15.30;99.90;;;;;;5079628;28;20139;-55
2022/10/07 11:02:38;;;;;;;12.65;3.10;;;15.60;99.90;;;;;;5079341;28;20045;-55
2022/10/07 11:05:07;;;;;;;16.70;3.25;;;15.90;99.90;;;;;;5079644;28;20052;-56
2022/10/07 11:07:40;;;;;;;15.02;2.70;;;15.80;99.90;;;;;;5074049;28;20076;-55
2022/10/07 11:10:16;;;;;;;15.07;2.97;;;15.70;99.90;;;;;;5067872;28;20089;-56
2022/10/07 11:12:47;;;;;;;19.95;3.97;;;15.80;99.90;;;;;;5070287;28;20033;-56
2022/10/07 11:15:31;;;;;;;14.02;3.08;;;15.80;99.90;;;;;;5068555;28;20659;-55
2022/10/07 11:18:03;;;;;;;13.35;3.75;;;16.00;99.90;;;;;;5078674;28;20072;-55
2022/10/07 11:20:37;;;;;;;;;;;16.20;99.90;;;;;;5078630;28;20036;-54
2022/10/07 11:23:16;;;;;;;15.45;3.25;;;16.30;99.90;;;;;;5076123;28;20003;-55
2022/10/07 11:25:49;;;;;;;17.35;3.55;;;16.30;99.90;;;;;;5075524;28;20037;-56
2022/10/07 11:28:31;;;;;;;18.98;3.58;;;16.30;99.90;;;;;;5075564;28;20057;-55
2022/10/07 11:31:02;;;;;;;18.58;3.17;;;16.30;99.90;;;;;;5077307;28;20052;-54
2022/10/07 11:33:53;;;;;;;14.90;3.28;;;16.50;99.90;;;;;;5077254;28;20446;-54
2022/10/07 11:36:33;;;;;;;14.85;2.88;;;16.50;99.90;;;;;;5076389;28;20075;-55
2022/10/07 11:38:59;;;;;;;16.15;3.20;;;16.50;99.90;;;;;;5077171;28;20508;-56
2022/10/07 11:41:32;;;;;;;13.13;2.95;;;16.30;99.90;;;;;;5076785;28;20040;-55
2022/10/07 11:44:08;;;;;;;16.05;3.67;;;16.20;99.90;;;;;;5077315;28;20048;-55
2022/10/07 11:46:39;;;;;;;14.38;3.35;;;16.40;99.90;;;;;;5073192;28;20041;-56
2022/10/07 11:49:15;;;;;;;13.82;3.35;;;16.40;99.90;;;;;;5070895;28;20043;-55
2022/10/07 11:51:55;;;;;;;16.02;2.80;;;16.50;99.90;;;;;;5068496;28;20072;-56
2022/10/07 11:54:26;;;;;;;12.93;2.85;;;16.40;99.90;;;;;;5068510;28;20044;-55
2022/10/07 11:56:55;;;;;;;21.30;3.92;;;16.50;99.90;;;;;;5058888;28;20083;-56
2022/10/07 11:59:44;;;;;;;17.52;3.10;;;16.40;99.90;;;;;;5065664;28;20041;-53
2022/10/07 12:02:28;;;;;;;14.02;2.53;;;16.40;99.90;;;;;;5077753;28;20047;-55
2022/10/07 12:04:56;;;;;;;15.40;2.53;;;16.40;99.90;;;;;;5078815;28;20053;-55
2022/10/07 12:07:33;;;;;;;14.68;2.90;;;16.40;99.90;;;;;;5080207;28;20048;-55
2022/10/07 12:10:02;;;;;;;12.65;2.35;;;16.30;99.90;;;;;;5081823;28;20100;-56
2022/10/07 12:12:43;;;;;;;12.25;2.47;;;16.30;99.90;;;;;;5082456;28;20056;-55
2022/10/07 12:15:42;;;;;;;11.68;2.70;;;16.30;99.90;;;;;;5081873;28;20100;-55
2022/10/07 12:18:09;;;;;;;10.88;2.80;;;16.40;99.90;;;;;;5081014;28;20052;-56
2022/10/07 12:20:50;;;;;;;11.40;2.60;;;16.40;99.90;;;;;;5081710;28;20052;-55
2022/10/07 12:23:22;;;;;;;13.80;2.67;;;16.30;99.90;;;;;;5073539;28;20411;-56
2022/10/07 12:25:48;;;;;;;12.30;3.90;;;16.30;99.90;;;;;;5071685;28;20056;-56
2022/10/07 12:28:40;;;;;;;18.25;2.92;;;16.30;99.90;;;;;;5072652;28;20594;-56
2022/10/07 12:31:26;;;;;;;13.25;3.05;;;16.20;99.90;;;;;;5062529;28;20056;-55
2022/10/07 12:33:58;;;;;;;17.02;2.85;;;16.20;99.90;;;;;;5062072;28;20052;-55
2022/10/07 12:36:28;;;;;;;13.70;2.30;;;16.10;99.90;;;;;;5060057;28;20520;-55
2022/10/07 12:38:59;;;;;;;13.18;2.65;;;16.20;99.90;;;;;;5060941;28;20049;-55
2022/10/07 12:41:26;;;;;;;12.80;2.83;;;16.10;99.90;;;;;;5061585;28;20577;-54
2022/10/07 12:44:16;;;;;;;16.05;3.03;;;16.00;99.90;;;;;;5062052;28;20044;-55
2022/10/07 12:46:47;;;;;;;16.35;3.17;;;16.10;99.90;;;;;;5062294;28;20124;-55
2022/10/07 12:49:39;;;;;;;17.83;3.13;;;16.20;99.90;;;;;;5061182;28;20073;-56
2022/10/07 12:52:21;;;;;;;12.02;2.90;;;16.20;99.90;;;;;;5062058;28;20068;-55
2022/10/07 12:54:55;;;;;;;10.77;2.10;;;16.20;99.90;;;;;;5061670;28;20083;-55
2022/10/07 12:57:28;;;;;;;9.30;2.03;;;16.10;99.90;;;;;;5061636;28;20055;-56
2022/10/07 12:59:54;;;;;;;14.15;2.55;;;16.10;99.90;;;;;;5073695;28;20053;-53
2022/10/07 13:02:49;;;;;;;14.85;2.30;;;16.10;99.90;;;;;;5081220;28;20036;-56
2022/10/07 13:05:38;;;;;;;9.93;2.03;;;16.10;99.90;;;;;;5081808;28;20056;-56
2022/10/07 13:08:19;;;;;;;13.68;2.40;;;16.20;99.90;;;;;;5081311;28;20055;-56
2022/10/07 13:11:21;;;;;;;10.23;2.20;;;16.10;99.90;;;;;;5080589;28;20051;-55
2022/10/07 13:14:03;;;;;;;11.55;2.30;;;16.10;99.90;;;;;;5079998;28;20059;-57